createdAt,value
2023-02-15T00:00:25.181Z,146.10
2023-02-15T00:02:53.454Z,131.93
2023-02-15T00:05:23.234Z,143.40
2023-02-15T00:07:51.727Z,140.02
2023-02-15T00:10:20.119Z,142.30
2023-02-15T00:12:48.432Z,138.05
2023-02-15T00:15:16.874Z,139.77
2023-02-15T00:17:45.078Z,136.02
2023-02-15T00:20:13.892Z,143.00
2023-02-15T00:22:43.932Z,146.65
2023-02-15T00:25:12.315Z,144.57
2023-02-15T00:27:40.617Z,134.95
2023-02-15T00:30:10.016Z,145.98
2023-02-15T00:32:38.294Z,146.75
2023-02-15T00:35:08.007Z,144.25
2023-02-15T00:37:36.487Z,145.63
2023-02-15T00:40:07.507Z,145.15
2023-02-15T00:42:35.973Z,146.00
2023-02-15T00:45:04.567Z,147.43
2023-02-15T00:47:32.800Z,146.90
2023-02-15T00:50:01.086Z,143.57
2023-02-15T00:52:29.477Z,142.48
2023-02-15T00:54:57.689Z,156.55
2023-02-15T00:57:27.631Z,157.38
2023-02-15T00:59:55.919Z,159.35
2023-02-15T01:02:24.079Z,151.27
2023-02-15T01:04:52.415Z,150.25
2023-02-15T01:07:20.950Z,149.93
2023-02-15T01:09:49.191Z,157.10
2023-02-15T01:12:17.580Z,149.77
2023-02-15T01:14:47.243Z,145.00
2023-02-15T01:17:15.476Z,141.85
2023-02-15T01:19:43.987Z,141.82
2023-02-15T01:22:12.611Z,140.20
2023-02-15T01:24:40.801Z,148.90
2023-02-15T01:27:09.130Z,155.27
2023-02-15T01:29:37.441Z,154.68
2023-02-15T01:32:07.366Z,147.10
2023-02-15T01:34:36.066Z,170.40
2023-02-15T01:37:04.619Z,169.38
2023-02-15T01:39:32.806Z,175.27
2023-02-15T01:42:01.603Z,170.63
2023-02-15T01:44:54.467Z,181.73
2023-02-15T01:47:29.548Z,170.48
2023-02-15T01:50:04.219Z,163.88
2023-02-15T01:52:33.117Z,171.25
2023-02-15T01:55:01.389Z,162.07
2023-02-15T01:57:30.857Z,170.35
2023-02-15T02:00:03.543Z,167.02
2023-02-15T02:02:33.418Z,172.07
2023-02-15T02:05:07.493Z,171.63
2023-02-15T02:07:40.437Z,164.23
2023-02-15T02:10:12.711Z,162.65
2023-02-15T02:12:43.027Z,161.45
2023-02-15T02:15:12.066Z,150.90
2023-02-15T02:17:52.465Z,143.15
2023-02-15T02:20:33.550Z,143.93
2023-02-15T02:23:26.321Z,131.85
2023-02-15T02:26:33.300Z,130.10
2023-02-15T02:29:36.964Z,124.05
2023-02-15T02:32:37.545Z,127.50
2023-02-15T02:35:13.762Z,124.28
2023-02-15T02:37:52.744Z,120.90
2023-02-15T02:40:30.975Z,120.55
2023-02-15T02:43:05.133Z,119.32
2023-02-15T02:45:41.125Z,125.25
2023-02-15T02:48:14.636Z,121.50
2023-02-15T02:50:44.683Z,116.05
2023-02-15T02:53:13.449Z,116.65
2023-02-15T02:55:46.178Z,119.68
2023-02-15T02:58:19.338Z,124.07
2023-02-15T03:00:52.079Z,114.03
2023-02-15T03:03:27.093Z,115.13
2023-02-15T03:06:01.999Z,117.28
2023-02-15T03:08:37.831Z,118.60
2023-02-15T03:11:06.942Z,119.40
2023-02-15T03:13:36.536Z,118.80
2023-02-15T03:16:24.685Z,118.53
2023-02-15T03:18:59.295Z,120.32
2023-02-15T03:21:35.095Z,120.45
2023-02-15T03:24:08.931Z,120.70
2023-02-15T03:26:38.749Z,114.97
2023-02-15T03:29:08.854Z,112.10
2023-02-15T03:31:42.828Z,108.97
2023-02-15T03:34:13.972Z,106.15
2023-02-15T03:36:48.403Z,107.60
2023-02-15T03:39:22.975Z,107.70
2023-02-15T03:41:59.774Z,104.90
2023-02-15T03:44:31.338Z,104.38
2023-02-15T03:47:05.635Z,110.20
2023-02-15T03:49:41.394Z,108.82
2023-02-15T03:52:13.496Z,106.20
2023-02-15T03:54:47.470Z,112.18
2023-02-15T03:57:36.684Z,111.78
2023-02-15T04:00:26.171Z,119.72
2023-02-15T04:03:09.274Z,116.78
2023-02-15T04:05:38.050Z,121.95
2023-02-15T04:08:07.940Z,111.63
2023-02-15T04:10:53.874Z,110.45
2023-02-15T04:13:22.710Z,117.85
2023-02-15T04:16:06.852Z,111.15
2023-02-15T04:18:54.581Z,112.95
2023-02-15T04:21:41.631Z,115.10
2023-02-15T04:24:30.194Z,115.35
2023-02-15T04:26:58.966Z,120.82
2023-02-15T04:29:28.935Z,119.32
2023-02-15T04:31:58.980Z,119.63
2023-02-15T04:34:28.037Z,120.32
2023-02-15T04:36:56.361Z,114.90
2023-02-15T04:39:25.919Z,116.93
2023-02-15T04:41:54.424Z,121.82
2023-02-15T04:44:22.813Z,111.93
2023-02-15T04:46:51.180Z,110.07
2023-02-15T04:49:19.595Z,111.32
2023-02-15T04:51:47.879Z,110.53
2023-02-15T04:54:16.190Z,104.85
2023-02-15T04:56:46.515Z,108.20
2023-02-15T04:59:15.071Z,113.35
2023-02-15T05:01:43.548Z,109.13
2023-02-15T05:04:12.178Z,118.53
2023-02-15T05:06:40.462Z,106.65
2023-02-15T05:09:08.695Z,114.30
2023-02-15T05:11:36.987Z,115.68
2023-02-15T05:14:07.077Z,108.15
2023-02-15T05:16:35.552Z,118.07
2023-02-15T05:19:04.119Z,118.93
2023-02-15T05:21:33.585Z,107.10
2023-02-15T05:24:01.861Z,109.07
2023-02-15T05:26:47.621Z,103.80
2023-02-15T05:29:17.281Z,108.80
2023-02-15T05:31:48.529Z,109.40
2023-02-15T05:34:16.831Z,101.43
2023-02-15T05:36:45.072Z,108.40
2023-02-15T05:39:13.427Z,101.47
2023-02-15T05:41:41.730Z,103.78
2023-02-15T05:44:09.932Z,99.97
2023-02-15T05:46:39.831Z,103.55
2023-02-15T05:49:08.366Z,97.55
2023-02-15T05:51:36.601Z,102.63
2023-02-15T05:54:05.121Z,96.70
2023-02-15T05:56:33.632Z,93.45
2023-02-15T05:59:01.970Z,95.72
2023-02-15T06:01:30.375Z,98.90
2023-02-15T06:04:00.018Z,95.78
2023-02-15T06:06:28.349Z,95.95
2023-02-15T06:08:56.986Z,99.78
2023-02-15T06:11:25.569Z,93.28
2023-02-15T06:13:53.818Z,90.38
2023-02-15T06:16:22.436Z,97.63
2023-02-15T06:18:52.805Z,96.78
2023-02-15T06:21:23.463Z,91.78
2023-02-15T06:23:51.881Z,93.97
2023-02-15T06:26:20.049Z,95.68
2023-02-15T06:28:48.341Z,93.50
2023-02-15T06:31:16.717Z,93.63
2023-02-15T06:33:44.940Z,96.38
2023-02-15T06:36:16.129Z,101.47
2023-02-15T06:38:45.751Z,98.90
2023-02-15T06:41:14.055Z,96.43
2023-02-15T06:43:42.402Z,98.68
2023-02-15T06:46:10.665Z,96.22
2023-02-15T06:48:38.952Z,95.45
2023-02-15T06:51:07.182Z,92.45
2023-02-15T06:53:36.680Z,94.95
2023-02-15T06:56:10.130Z,98.43
2023-02-15T06:58:38.513Z,97.68
2023-02-15T07:01:07.418Z,101.63
2023-02-15T07:03:36.362Z,97.20
2023-02-15T07:06:09.404Z,93.82
2023-02-15T07:08:37.933Z,87.70
2023-02-15T07:11:26.020Z,92.05
2023-02-15T07:13:54.768Z,87.68
2023-02-15T07:16:23.293Z,90.32
2023-02-15T07:18:51.561Z,98.85
2023-02-15T07:21:20.055Z,89.18
2023-02-15T07:23:48.766Z,90.18
2023-02-15T07:26:18.414Z,86.13
2023-02-15T07:28:46.664Z,84.70
2023-02-15T07:31:15.059Z,85.60
2023-02-15T07:33:43.616Z,83.28
2023-02-15T07:36:13.414Z,84.45
2023-02-15T07:38:43.568Z,84.18
2023-02-15T07:41:15.023Z,87.13
2023-02-15T07:43:46.058Z,79.82
2023-02-15T07:46:16.451Z,79.28
2023-02-15T07:48:45.457Z,79.30
2023-02-15T07:51:15.492Z,79.95
2023-02-15T07:53:44.365Z,72.88
2023-02-15T07:56:13.915Z,76.53
2023-02-15T07:58:56.969Z,68.57
2023-02-15T08:01:28.984Z,73.40
2023-02-15T08:04:00.101Z,66.68
2023-02-15T08:06:32.400Z,69.22
2023-02-15T08:09:01.938Z,65.90
2023-02-15T08:11:37.774Z,63.58
2023-02-15T08:14:08.957Z,65.07
2023-02-15T08:16:40.552Z,61.03
2023-02-15T08:19:10.666Z,58.83
2023-02-15T08:21:41.208Z,60.83
2023-02-15T08:24:10.988Z,63.50
2023-02-15T08:26:42.334Z,61.00
2023-02-15T08:29:11.337Z,61.97
2023-02-15T08:31:42.527Z,56.88
2023-02-15T08:34:12.622Z,59.45
2023-02-15T08:36:41.522Z,60.25
2023-02-15T08:39:10.290Z,58.22
2023-02-15T08:41:40.482Z,56.60
2023-02-15T08:44:10.653Z,62.22
2023-02-15T08:46:42.753Z,58.95
2023-02-15T08:49:13.728Z,58.13
2023-02-15T08:51:42.239Z,56.35
2023-02-15T08:54:12.852Z,56.47
2023-02-15T08:56:43.142Z,57.72
2023-02-15T08:59:16.536Z,59.72
2023-02-15T09:01:46.939Z,55.08
2023-02-15T09:04:16.859Z,54.65
2023-02-15T09:06:48.616Z,54.83
2023-02-15T09:09:18.009Z,53.65
2023-02-15T09:11:51.399Z,51.63
2023-02-15T09:14:24.498Z,55.03
2023-02-15T09:16:55.343Z,55.63
2023-02-15T09:19:24.680Z,51.28
2023-02-15T09:21:53.803Z,53.08
2023-02-15T09:24:22.103Z,53.45
2023-02-15T09:26:51.283Z,53.65
2023-02-15T09:29:20.639Z,53.25
2023-02-15T09:31:51.309Z,50.15
2023-02-15T09:34:23.810Z,52.75
2023-02-15T09:36:53.185Z,49.63
2023-02-15T09:39:24.690Z,51.08
2023-02-15T09:42:25.636Z,48.50
2023-02-15T09:45:07.965Z,46.85
2023-02-15T09:48:13.824Z,45.58
2023-02-15T09:50:51.576Z,44.03
2023-02-15T09:53:44.905Z,45.10
2023-02-15T09:56:21.249Z,44.47
2023-02-15T09:58:58.045Z,43.67
2023-02-15T10:01:38.583Z,42.92
2023-02-15T10:04:25.912Z,44.58
2023-02-15T10:07:03.783Z,44.63
2023-02-15T10:09:46.475Z,44.72
2023-02-15T10:12:27.683Z,41.90
2023-02-15T10:15:19.144Z,42.85
2023-02-15T10:18:03.743Z,43.47
2023-02-15T10:20:42.504Z,43.95
2023-02-15T10:23:32.929Z,40.72
2023-02-15T10:26:12.629Z,41.55
2023-02-15T10:28:48.379Z,42.33
2023-02-15T10:31:26.132Z,44.80
2023-02-15T10:34:18.511Z,44.83
2023-02-15T10:37:25.285Z,43.28
2023-02-15T10:40:03.906Z,45.80
2023-02-15T10:42:43.269Z,46.55
2023-02-15T10:45:23.555Z,44.00
2023-02-15T10:48:04.086Z,44.05
2023-02-15T10:50:42.661Z,46.58
2023-02-15T10:53:22.795Z,46.40
2023-02-15T10:56:01.287Z,47.38
2023-02-15T10:58:46.116Z,46.03
2023-02-15T11:01:22.422Z,50.67
2023-02-15T11:04:32.667Z,51.20
2023-02-15T11:07:05.828Z,48.63
2023-02-15T11:09:41.373Z,45.58
2023-02-15T11:12:15.770Z,49.92
2023-02-15T11:14:50.903Z,48.17
2023-02-15T11:17:23.926Z,46.65
2023-02-15T11:20:01.922Z,50.15
2023-02-15T11:22:32.679Z,48.53
2023-02-15T11:25:03.113Z,50.03
2023-02-15T11:27:35.019Z,54.25
2023-02-15T11:30:05.878Z,53.20
2023-02-15T11:32:37.820Z,51.72
2023-02-15T11:35:14.241Z,52.05
2023-02-15T11:37:47.799Z,49.10
2023-02-15T11:40:23.590Z,47.97
2023-02-15T11:42:57.250Z,48.75
2023-02-15T11:47:57.256Z,48.30
2023-02-15T11:50:27.735Z,51.17
2023-02-15T11:53:00.958Z,47.90
2023-02-15T11:55:30.683Z,49.85
2023-02-15T11:58:08.292Z,50.03
2023-02-15T12:00:40.028Z,48.97
2023-02-15T12:03:18.164Z,51.45
2023-02-15T12:05:49.804Z,48.40
2023-02-15T12:08:21.498Z,50.70
2023-02-15T12:11:01.157Z,50.13
2023-02-15T12:13:31.375Z,53.88
2023-02-15T12:16:06.876Z,48.53
2023-02-15T12:18:41.211Z,48.95
2023-02-15T12:21:12.905Z,51.53
2023-02-15T12:23:49.497Z,46.65
2023-02-15T12:26:26.232Z,49.28
2023-02-15T12:28:59.195Z,48.13
2023-02-15T12:31:33.135Z,48.53
2023-02-15T12:34:06.919Z,47.67
2023-02-15T12:36:47.571Z,50.28
2023-02-15T12:39:23.441Z,47.00
2023-02-15T12:42:05.064Z,45.90
2023-02-15T12:44:38.299Z,46.65
2023-02-15T12:47:08.580Z,47.53
2023-02-15T12:49:38.296Z,48.70
2023-02-15T12:52:09.209Z,50.00
2023-02-15T12:54:43.163Z,49.35
2023-02-15T12:57:25.859Z,43.13
2023-02-15T12:59:57.941Z,47.22
2023-02-15T13:02:33.691Z,48.85
2023-02-15T13:05:17.312Z,49.70
2023-02-15T13:07:51.363Z,48.40
2023-02-15T13:10:27.913Z,46.55
2023-02-15T13:12:58.795Z,45.80
2023-02-15T13:15:34.550Z,46.13
2023-02-15T13:18:05.170Z,46.08
2023-02-15T13:20:37.471Z,45.55
2023-02-15T13:23:08.519Z,45.58
2023-02-15T13:25:51.143Z,46.03
2023-02-15T13:28:24.706Z,48.28
2023-02-15T13:30:54.494Z,48.15
2023-02-15T13:33:29.748Z,47.97
2023-02-15T13:36:10.606Z,49.97
2023-02-15T13:38:53.972Z,49.05
2023-02-15T13:41:27.871Z,49.00
2023-02-15T13:44:04.164Z,48.17
2023-02-15T13:47:02.792Z,46.33
2023-02-15T13:49:47.401Z,53.70
2023-02-15T13:52:22.476Z,48.08
2023-02-15T13:55:03.095Z,48.83
2023-02-15T13:57:48.466Z,51.45
2023-02-15T14:00:24.507Z,46.72
2023-02-15T14:03:33.526Z,49.70
2023-02-15T14:06:31.701Z,49.40
2023-02-15T14:09:12.242Z,48.28
2023-02-15T14:11:50.805Z,47.97
2023-02-15T14:14:41.852Z,50.30
2023-02-15T14:17:20.448Z,50.35
2023-02-15T14:19:56.446Z,47.25
2023-02-15T14:22:33.933Z,49.75
2023-02-15T14:25:18.136Z,49.83
2023-02-15T14:27:56.961Z,46.13
2023-02-15T14:30:29.302Z,46.58
2023-02-15T14:33:02.129Z,48.25
2023-02-15T14:35:33.361Z,46.25
2023-02-15T14:38:07.453Z,48.63
2023-02-15T14:41:00.597Z,53.85
2023-02-15T14:43:43.608Z,46.90
2023-02-15T14:46:20.435Z,46.70
2023-02-15T14:48:51.437Z,49.40
2023-02-15T14:51:57.920Z,46.13
2023-02-15T14:55:02.236Z,47.90
2023-02-15T14:57:37.388Z,50.35
2023-02-15T15:00:40.274Z,48.20
2023-02-15T15:03:23.661Z,53.78
2023-02-15T15:05:55.323Z,51.60
2023-02-15T15:08:33.889Z,49.83
2023-02-15T15:11:43.382Z,48.58
2023-02-15T15:14:41.276Z,50.05
2023-02-15T15:17:13.660Z,49.67
2023-02-15T15:20:12.086Z,51.00
2023-02-15T15:22:40.888Z,52.45
2023-02-15T15:25:14.804Z,49.17
2023-02-15T15:27:55.210Z,51.15
2023-02-15T15:30:53.317Z,54.75
2023-02-15T15:33:49.136Z,50.08
2023-02-15T15:36:44.331Z,49.90
2023-02-15T15:39:28.542Z,53.03
2023-02-15T15:42:03.839Z,54.60
2023-02-15T15:45:14.267Z,50.80
2023-02-15T15:48:07.294Z,53.58
2023-02-15T15:50:36.864Z,51.70
2023-02-15T15:53:05.768Z,54.33
2023-02-15T15:55:35.842Z,52.05
2023-02-15T15:58:07.446Z,56.53
2023-02-15T16:00:40.023Z,59.33
2023-02-15T16:03:17.197Z,57.13
2023-02-15T16:05:45.434Z,57.97
2023-02-15T16:08:14.065Z,56.63
2023-02-15T16:10:43.528Z,53.50
2023-02-15T16:13:16.868Z,59.15
2023-02-15T16:15:50.811Z,55.30
2023-02-15T16:18:25.268Z,55.92
2023-02-15T16:20:57.462Z,59.70
2023-02-15T16:24:01.275Z,54.60
2023-02-15T16:26:51.218Z,56.50
2023-02-15T16:29:27.899Z,58.58
2023-02-15T16:32:05.159Z,56.78
2023-02-15T16:34:35.174Z,59.03
2023-02-15T16:37:19.805Z,58.25
2023-02-15T16:39:49.917Z,59.92
2023-02-15T16:42:18.960Z,59.75
2023-02-15T16:44:50.343Z,56.88
2023-02-15T16:47:23.585Z,59.85
2023-02-15T16:49:57.041Z,60.53
2023-02-15T16:52:27.334Z,60.80
2023-02-15T16:54:58.856Z,60.28
2023-02-15T16:57:30.331Z,66.22
2023-02-15T17:00:02.970Z,60.22
2023-02-15T17:02:55.560Z,59.47
2023-02-15T17:05:24.795Z,62.58
2023-02-15T17:08:07.058Z,60.80
2023-02-15T17:10:37.860Z,63.90
2023-02-15T17:13:12.321Z,61.40
2023-02-15T17:15:42.878Z,63.67
2023-02-15T17:18:18.803Z,67.13
2023-02-15T17:20:49.868Z,62.78
2023-02-15T17:23:26.688Z,68.25
2023-02-15T17:25:55.403Z,63.90
2023-02-15T17:28:26.607Z,66.97
2023-02-15T17:30:56.602Z,69.22
2023-02-15T17:33:30.147Z,65.03
2023-02-15T17:36:09.920Z,68.10
2023-02-15T17:38:40.065Z,64.22
2023-02-15T17:41:09.853Z,63.28
2023-02-15T17:43:40.029Z,68.03
2023-02-15T17:46:12.426Z,71.63
2023-02-15T17:48:43.409Z,68.65
2023-02-15T17:51:15.278Z,68.80
2023-02-15T17:54:04.745Z,69.32
2023-02-15T17:56:32.404Z,73.43
2023-02-15T17:59:00.684Z,73.07
2023-02-15T18:01:46.638Z,73.72
2023-02-15T18:04:33.224Z,73.45
2023-02-15T18:07:20.352Z,71.40
2023-02-15T18:10:05.960Z,73.75
2023-02-15T18:12:38.857Z,73.07
2023-02-15T18:15:10.925Z,73.93
2023-02-15T18:17:44.184Z,72.07
2023-02-15T18:20:22.230Z,76.07
2023-02-15T18:22:53.750Z,69.22
2023-02-15T18:25:25.468Z,75.18
2023-02-15T18:27:55.285Z,70.82
2023-02-15T18:30:26.895Z,69.65
2023-02-15T18:32:57.967Z,71.20
2023-02-15T18:35:29.743Z,72.15
2023-02-15T18:38:00.382Z,72.32
2023-02-15T18:40:30.524Z,70.80
2023-02-15T18:42:58.729Z,64.60
2023-02-15T18:45:32.446Z,69.10
2023-02-15T18:48:00.881Z,68.32
2023-02-15T18:50:32.475Z,65.13
2023-02-15T18:53:04.532Z,68.78
2023-02-15T18:55:33.805Z,67.85
2023-02-15T18:58:02.761Z,67.85
2023-02-15T19:00:33.592Z,69.13
2023-02-15T19:03:03.292Z,70.45
2023-02-15T19:05:34.046Z,70.05
2023-02-15T19:08:04.507Z,71.38
2023-02-15T19:10:34.350Z,70.20
2023-02-15T19:13:02.695Z,76.85
2023-02-15T19:15:31.989Z,73.13
2023-02-15T19:18:00.581Z,69.50
2023-02-15T19:20:37.854Z,72.10
2023-02-15T19:23:10.476Z,72.95
2023-02-15T19:25:40.841Z,75.05
2023-02-15T19:28:15.250Z,73.35
2023-02-15T19:30:43.601Z,72.25
2023-02-15T19:33:17.709Z,71.35
2023-02-15T19:35:47.621Z,70.97
2023-02-15T19:38:21.797Z,76.82
2023-02-15T19:40:50.364Z,72.05
2023-02-15T19:43:20.634Z,71.05
2023-02-15T19:45:52.457Z,70.90
2023-02-15T19:48:21.142Z,72.35
2023-02-15T19:50:50.379Z,69.85
2023-02-15T19:53:25.657Z,73.78
2023-02-15T19:55:54.318Z,74.00
2023-02-15T19:58:23.611Z,73.55
2023-02-15T20:00:52.757Z,75.68
2023-02-15T20:03:20.992Z,73.50
2023-02-15T20:05:49.473Z,76.30
2023-02-15T20:08:19.841Z,69.85
2023-02-15T20:10:50.394Z,73.18
2023-02-15T20:13:21.049Z,76.00
2023-02-15T20:15:50.172Z,71.75
2023-02-15T20:18:20.423Z,74.72
2023-02-15T20:20:53.528Z,78.38
2023-02-15T20:23:30.927Z,73.88
2023-02-15T20:26:02.986Z,73.90
2023-02-15T20:28:32.724Z,73.35
2023-02-15T20:31:01.342Z,71.28
2023-02-15T20:33:29.761Z,69.90
2023-02-15T20:35:58.262Z,71.18
2023-02-15T20:38:29.659Z,71.22
2023-02-15T20:41:18.995Z,70.47
2023-02-15T20:43:47.246Z,73.15
2023-02-15T20:46:15.711Z,72.15
2023-02-15T20:48:44.178Z,71.30
2023-02-15T20:51:18.501Z,70.30
2023-02-15T20:53:47.412Z,75.10
2023-02-15T20:56:20.456Z,86.72
2023-02-15T20:58:49.179Z,79.15
2023-02-15T21:01:19.863Z,79.70
2023-02-15T21:03:48.923Z,75.03
2023-02-15T21:06:18.927Z,75.07
2023-02-15T21:08:47.270Z,76.95
2023-02-15T21:11:21.199Z,75.07
2023-02-15T21:13:50.065Z,71.85
2023-02-15T21:16:18.852Z,78.43
2023-02-15T21:18:47.296Z,74.00
2023-02-15T21:21:20.169Z,75.82
2023-02-15T21:23:49.373Z,72.10
2023-02-15T21:26:21.804Z,77.50
2023-02-15T21:28:51.830Z,72.53
2023-02-15T21:31:23.164Z,73.07
2023-02-15T21:33:51.890Z,76.57
2023-02-15T21:36:21.862Z,75.43
2023-02-15T21:38:50.844Z,78.47
2023-02-15T21:41:40.230Z,73.70
2023-02-15T21:44:35.356Z,75.32
2023-02-15T21:47:21.621Z,81.63
2023-02-15T21:49:49.948Z,78.72
2023-02-15T21:52:20.842Z,74.60
2023-02-15T21:54:49.250Z,75.72
2023-02-15T21:57:22.031Z,77.07
2023-02-15T21:59:50.681Z,77.60
2023-02-15T22:02:31.223Z,78.35
2023-02-15T22:05:00.056Z,75.88
2023-02-15T22:07:28.465Z,74.95
2023-02-15T22:09:56.788Z,75.10
2023-02-15T22:12:26.584Z,77.47
2023-02-15T22:14:55.523Z,76.47
2023-02-15T22:17:26.045Z,77.05
2023-02-15T22:19:54.480Z,75.18
2023-02-15T22:22:22.919Z,81.18
2023-02-15T22:24:51.300Z,74.82
2023-02-15T22:27:22.525Z,81.18
2023-02-15T22:29:52.667Z,82.00
2023-02-15T22:32:22.707Z,79.72
2023-02-15T22:34:52.092Z,78.43
2023-02-15T22:37:20.466Z,82.60
2023-02-15T22:39:48.673Z,79.70
2023-02-15T22:42:25.869Z,80.07
2023-02-15T22:44:57.117Z,80.32
2023-02-15T22:47:28.142Z,83.20
2023-02-15T22:49:57.008Z,84.88
2023-02-15T22:52:26.627Z,78.85
2023-02-15T22:54:55.067Z,85.15
2023-02-15T22:57:29.930Z,82.60
2023-02-15T23:00:01.254Z,82.40
2023-02-15T23:02:29.658Z,83.97
2023-02-15T23:04:57.914Z,81.50
2023-02-15T23:07:26.570Z,90.68
2023-02-15T23:09:54.829Z,82.78
2023-02-15T23:12:28.518Z,82.40
2023-02-15T23:17:26.432Z,89.88
2023-02-15T23:19:54.753Z,92.85
2023-02-15T23:22:22.977Z,88.78
2023-02-15T23:24:53.891Z,84.55
2023-02-15T23:27:39.987Z,85.13
2023-02-15T23:30:15.695Z,84.57
2023-02-15T23:32:45.910Z,92.10
2023-02-15T23:35:16.376Z,93.88
2023-02-15T23:37:45.172Z,90.10
2023-02-15T23:40:33.450Z,99.03
2023-02-15T23:43:02.219Z,88.03
2023-02-15T23:45:33.140Z,91.70
2023-02-15T23:48:20.465Z,87.28
2023-02-15T23:50:48.748Z,91.72
2023-02-15T23:53:17.142Z,99.22
2023-02-15T23:55:46.118Z,91.28
2023-02-15T23:58:18.142Z,91.82
